createdAt,value
2017-07-31T00:09:07.967Z,18.07
2017-07-31T00:19:07.916Z,18.19
2017-07-31T00:29:07.879Z,18.22
2017-07-31T00:39:07.950Z,18.18
2017-07-31T00:49:07.855Z,18.09
2017-07-31T00:59:07.924Z,18.15
2017-07-31T01:09:07.862Z,18.06
2017-07-31T01:19:07.924Z,17.97
2017-07-31T01:29:07.884Z,17.95
2017-07-31T01:39:07.970Z,17.55
2017-07-31T01:49:07.965Z,17.2
2017-07-31T01:59:07.863Z,16.89
2017-07-31T02:09:07.956Z,16.55
2017-07-31T02:19:07.923Z,16.52
2017-07-31T02:29:07.843Z,16.25
2017-07-31T02:39:07.913Z,16.09
2017-07-31T02:49:07.881Z,15.94
2017-07-31T02:59:07.941Z,15.96
2017-07-31T03:09:07.897Z,15.64
2017-07-31T03:19:07.887Z,15.64
2017-07-31T03:29:07.915Z,15.57
2017-07-31T03:39:07.876Z,15.49
2017-07-31T03:49:07.873Z,15.39
2017-07-31T03:59:07.943Z,15.2
2017-07-31T04:09:07.866Z,15.15
2017-07-31T04:19:07.972Z,15.28
2017-07-31T04:29:07.929Z,15.38
2017-07-31T04:39:07.895Z,15.54
2017-07-31T04:49:07.926Z,15.57
2017-07-31T04:59:07.887Z,15.97
2017-07-31T05:09:07.929Z,16.26
2017-07-31T05:19:07.908Z,16.68
2017-07-31T05:29:07.877Z,17.14
2017-07-31T05:39:07.924Z,17.46
2017-07-31T05:49:07.923Z,18.06
2017-07-31T05:59:07.846Z,18.33
2017-07-31T06:09:07.912Z,19.14
2017-07-31T06:19:07.951Z,19.18
2017-07-31T06:29:07.951Z,19.51
2017-07-31T06:39:07.884Z,20.06
2017-07-31T06:49:07.891Z,21.48
2017-07-31T06:59:07.933Z,27.29
2017-07-31T07:09:08.863Z,30.23
2017-07-31T07:19:07.907Z,31.45
2017-07-31T07:29:07.936Z,32.52
2017-07-31T07:39:07.907Z,33.26
2017-07-31T07:49:07.915Z,34.23
2017-07-31T07:59:07.930Z,35.44
2017-07-31T08:09:07.908Z,34.01
2017-07-31T08:19:07.843Z,34.66
2017-07-31T08:29:08.205Z,33.26
2017-07-31T08:39:07.899Z,33.45
2017-07-31T08:49:07.887Z,33.7
2017-07-31T08:59:07.865Z,33.63
2017-07-31T09:09:07.892Z,30.98
2017-07-31T09:19:07.917Z,28.03
2017-07-31T09:29:07.898Z,26.72
2017-07-31T09:39:07.901Z,26.22
2017-07-31T09:49:07.876Z,25.83
2017-07-31T09:59:07.940Z,25.82
2017-07-31T10:09:07.920Z,26.04
2017-07-31T10:19:07.962Z,25.56
2017-07-31T10:29:07.922Z,24.91
2017-07-31T10:39:07.910Z,25.56
2017-07-31T10:49:07.970Z,26.17
2017-07-31T10:59:07.895Z,25.97
2017-07-31T11:09:07.925Z,25.8
2017-07-31T11:19:07.923Z,25.93
2017-07-31T11:29:07.907Z,25.97
2017-07-31T11:39:07.972Z,25.99
2017-07-31T11:49:07.949Z,26.29
2017-07-31T11:59:08.142Z,26.58
2017-07-31T12:09:08.063Z,26.32
2017-07-31T12:19:07.998Z,26.09
2017-07-31T12:29:08.013Z,26.28
2017-07-31T12:39:07.967Z,26.09
2017-07-31T12:49:08.044Z,25.71
2017-07-31T12:59:08.011Z,25.24
2017-07-31T13:09:07.953Z,25.42
2017-07-31T13:19:08.017Z,25.79
2017-07-31T13:29:07.992Z,25.9
2017-07-31T13:39:08.081Z,25.5
2017-07-31T13:49:08.001Z,26.01
2017-07-31T13:59:08.127Z,26.2
2017-07-31T14:09:08.048Z,26.15
2017-07-31T14:19:08.018Z,26.08
2017-07-31T14:29:08.069Z,25.56
2017-07-31T14:39:08.240Z,26.21
2017-07-31T14:49:08.074Z,26.11
2017-07-31T14:59:08.151Z,26.06
2017-07-31T15:09:08.040Z,26.06
2017-07-31T15:19:08.073Z,25.83
2017-07-31T15:29:08.025Z,26.29
2017-07-31T15:39:08.137Z,25.99
2017-07-31T15:49:07.966Z,25.97
2017-07-31T15:59:08.013Z,25.71
2017-07-31T16:09:08.086Z,26.21
2017-07-31T16:19:07.995Z,26.05
2017-07-31T16:29:08.080Z,25.32
2017-07-31T16:39:08.088Z,25.65
2017-07-31T16:49:08.024Z,25.83
2017-07-31T16:59:08.001Z,25.83
2017-07-31T17:09:08.006Z,25.82
2017-07-31T17:19:07.992Z,25.52
2017-07-31T17:29:07.988Z,25.3
2017-07-31T17:39:08.142Z,24.82
2017-07-31T17:49:08.005Z,24.32
2017-07-31T17:59:08.003Z,23.77
2017-07-31T18:09:08.002Z,23.09
2017-07-31T18:19:08.010Z,22.56
2017-07-31T18:29:08.043Z,22.23
2017-07-31T18:39:08.011Z,22.02
2017-07-31T18:49:08.018Z,21.72
2017-07-31T18:59:08.059Z,21.06
2017-07-31T19:09:08.041Z,20.58
2017-07-31T19:19:08.002Z,20.28
2017-07-31T19:29:08.039Z,19.93
2017-07-31T19:39:08.009Z,19.38
2017-07-31T19:49:08.007Z,19.14
2017-07-31T19:59:08.143Z,18.82
2017-07-31T20:09:08.042Z,18.61
2017-07-31T20:19:08.029Z,18.29
2017-07-31T20:29:08.057Z,18.19
2017-07-31T20:39:08.013Z,18.17
2017-07-31T20:49:08.026Z,18.03
2017-07-31T20:59:08.059Z,17.87
2017-07-31T21:09:08.164Z,18.02
2017-07-31T21:19:08.076Z,18.06
2017-07-31T21:29:08.033Z,18.15
2017-07-31T21:39:08.143Z,18.02
2017-07-31T21:49:08.101Z,18.06
2017-07-31T21:59:08.180Z,18.04
2017-07-31T22:09:08.096Z,18.07
2017-07-31T22:19:08.080Z,18.24
2017-07-31T22:29:08.111Z,18.36
2017-07-31T22:39:08.062Z,18.4
2017-07-31T22:49:08.142Z,18.42
2017-07-31T22:59:08.140Z,18.39
2017-07-31T23:09:08.128Z,18.43
2017-07-31T23:19:08.104Z,18.43
2017-07-31T23:29:08.072Z,18.46
2017-07-31T23:39:08.148Z,18.52
2017-07-31T23:49:08.083Z,18.39
2017-07-31T23:59:08.060Z,18.19
